sensor_id;sensor_type;location;lat;lon;timestamp;P1;durP1;ratioP1;P2;durP2;ratioP2
12554;SDS011;6343;50.868;4.700;2024-01-16T00:01:52;5.30;;;2.30;;
12554;SDS011;6343;50.868;4.700;2024-01-16T00:04:18;8.00;;;3.30;;
12554;SDS011;6343;50.868;4.700;2024-01-16T00:06:44;8.30;;;3.00;;
12554;SDS011;6343;50.868;4.700;2024-01-16T00:09:11;7.47;;;2.90;;
12554;SDS011;6343;50.868;4.700;2024-01-16T00:11:40;7.07;;;2.93;;
12554;SDS011;6343;50.868;4.700;2024-01-16T00:14:06;11.57;;;3.17;;
12554;SDS011;6343;50.868;4.700;2024-01-16T00:16:32;6.80;;;2.90;;
12554;SDS011;6343;50.868;4.700;2024-01-16T00:18:58;5.33;;;2.50;;
12554;SDS011;6343;50.868;4.700;2024-01-16T00:21:24;7.60;;;3.17;;
12554;SDS011;6343;50.868;4.700;2024-01-16T00:23:50;6.77;;;3.30;;
12554;SDS011;6343;50.868;4.700;2024-01-16T00:26:20;10.33;;;3.27;;
12554;SDS011;6343;50.868;4.700;2024-01-16T00:28:46;8.97;;;3.20;;
12554;SDS011;6343;50.868;4.700;2024-01-16T00:31:13;15.40;;;3.27;;
12554;SDS011;6343;50.868;4.700;2024-01-16T00:33:39;7.10;;;2.80;;
12554;SDS011;6343;50.868;4.700;2024-01-16T00:36:05;7.07;;;2.80;;
12554;SDS011;6343;50.868;4.700;2024-01-16T00:38:34;5.77;;;3.30;;
12554;SDS011;6343;50.868;4.700;2024-01-16T00:41:01;6.53;;;3.03;;
12554;SDS011;6343;50.868;4.700;2024-01-16T00:43:27;6.27;;;2.80;;
12554;SDS011;6343;50.868;4.700;2024-01-16T00:45:53;9.20;;;2.80;;
12554;SDS011;6343;50.868;4.700;2024-01-16T00:48:19;8.47;;;2.73;;
12554;SDS011;6343;50.868;4.700;2024-01-16T00:50:46;13.03;;;3.43;;
12554;SDS011;6343;50.868;4.700;2024-01-16T00:53:15;10.43;;;3.40;;
12554;SDS011;6343;50.868;4.700;2024-01-16T00:55:42;9.83;;;3.17;;
12554;SDS011;6343;50.868;4.700;2024-01-16T00:58:08;8.70;;;3.30;;
12554;SDS011;6343;50.868;4.700;2024-01-16T01:00:34;9.57;;;2.80;;
12554;SDS011;6343;50.868;4.700;2024-01-16T01:03:02;5.40;;;2.63;;
12554;SDS011;6343;50.868;4.700;2024-01-16T01:05:31;10.07;;;3.93;;
12554;SDS011;6343;50.868;4.700;2024-01-16T01:07:57;10.60;;;3.43;;
12554;SDS011;6343;50.868;4.700;2024-01-16T01:10:24;10.30;;;3.10;;
12554;SDS011;6343;50.868;4.700;2024-01-16T01:12:50;7.03;;;2.90;;
12554;SDS011;6343;50.868;4.700;2024-01-16T01:15:22;6.93;;;3.10;;
12554;SDS011;6343;50.868;4.700;2024-01-16T01:17:48;10.00;;;3.00;;
12554;SDS011;6343;50.868;4.700;2024-01-16T01:20:15;9.47;;;2.87;;
12554;SDS011;6343;50.868;4.700;2024-01-16T01:22:41;9.03;;;3.07;;
12554;SDS011;6343;50.868;4.700;2024-01-16T01:25:07;8.77;;;3.13;;
12554;SDS011;6343;50.868;4.700;2024-01-16T01:27:33;9.07;;;3.00;;
12554;SDS011;6343;50.868;4.700;2024-01-16T01:29:59;14.03;;;3.20;;
12554;SDS011;6343;50.868;4.700;2024-01-16T01:32:25;7.43;;;3.80;;
12554;SDS011;6343;50.868;4.700;2024-01-16T01:34:52;12.87;;;3.10;;
12554;SDS011;6343;50.868;4.700;2024-01-16T01:37:18;15.13;;;3.37;;
12554;SDS011;6343;50.868;4.700;2024-01-16T01:39:44;6.97;;;2.80;;
12554;SDS011;6343;50.868;4.700;2024-01-16T01:42:10;12.13;;;3.10;;
12554;SDS011;6343;50.868;4.700;2024-01-16T01:44:36;8.77;;;3.47;;
12554;SDS011;6343;50.868;4.700;2024-01-16T01:47:02;12.00;;;3.00;;
12554;SDS011;6343;50.868;4.700;2024-01-16T01:49:30;4.47;;;2.63;;
12554;SDS011;6343;50.868;4.700;2024-01-16T01:51:57;12.97;;;3.30;;
12554;SDS011;6343;50.868;4.700;2024-01-16T01:54:23;6.37;;;2.50;;
12554;SDS011;6343;50.868;4.700;2024-01-16T01:56:50;10.80;;;3.23;;
12554;SDS011;6343;50.868;4.700;2024-01-16T01:59:19;6.70;;;2.57;;
12554;SDS011;6343;50.868;4.700;2024-01-16T02:01:47;10.60;;;3.00;;
12554;SDS011;6343;50.868;4.700;2024-01-16T02:04:14;7.20;;;2.80;;
12554;SDS011;6343;50.868;4.700;2024-01-16T02:06:43;9.37;;;3.20;;
12554;SDS011;6343;50.868;4.700;2024-01-16T02:09:10;9.07;;;3.37;;
12554;SDS011;6343;50.868;4.700;2024-01-16T02:11:38;11.80;;;2.97;;
12554;SDS011;6343;50.868;4.700;2024-01-16T02:14:05;15.70;;;4.03;;
12554;SDS011;6343;50.868;4.700;2024-01-16T02:16:35;9.93;;;3.43;;
12554;SDS011;6343;50.868;4.700;2024-01-16T02:19:03;6.37;;;2.83;;
12554;SDS011;6343;50.868;4.700;2024-01-16T02:21:30;9.03;;;3.23;;
12554;SDS011;6343;50.868;4.700;2024-01-16T02:23:58;9.60;;;3.23;;
12554;SDS011;6343;50.868;4.700;2024-01-16T02:26:24;8.67;;;3.30;;
12554;SDS011;6343;50.868;4.700;2024-01-16T02:28:50;8.30;;;2.87;;
12554;SDS011;6343;50.868;4.700;2024-01-16T02:31:17;8.00;;;2.87;;
12554;SDS011;6343;50.868;4.700;2024-01-16T02:33:44;8.77;;;2.83;;
12554;SDS011;6343;50.868;4.700;2024-01-16T02:36:10;5.53;;;2.70;;
12554;SDS011;6343;50.868;4.700;2024-01-16T02:38:36;9.17;;;3.07;;
12554;SDS011;6343;50.868;4.700;2024-01-16T02:41:03;6.40;;;2.90;;
12554;SDS011;6343;50.868;4.700;2024-01-16T02:43:29;4.97;;;2.77;;
12554;SDS011;6343;50.868;4.700;2024-01-16T02:45:55;6.97;;;2.50;;
12554;SDS011;6343;50.868;4.700;2024-01-16T02:48:21;10.97;;;3.23;;
12554;SDS011;6343;50.868;4.700;2024-01-16T02:50:47;9.03;;;2.40;;
12554;SDS011;6343;50.868;4.700;2024-01-16T02:53:13;5.23;;;2.97;;
12554;SDS011;6343;50.868;4.700;2024-01-16T02:55:39;10.43;;;2.93;;
12554;SDS011;6343;50.868;4.700;2024-01-16T02:58:05;10.20;;;2.60;;
12554;SDS011;6343;50.868;4.700;2024-01-16T03:00:31;8.17;;;3.00;;
12554;SDS011;6343;50.868;4.700;2024-01-16T03:02:57;4.97;;;2.67;;
12554;SDS011;6343;50.868;4.700;2024-01-16T03:05:24;6.63;;;2.90;;
12554;SDS011;6343;50.868;4.700;2024-01-16T03:07:50;6.93;;;2.50;;
12554;SDS011;6343;50.868;4.700;2024-01-16T03:10:16;6.27;;;3.07;;
12554;SDS011;6343;50.868;4.700;2024-01-16T03:12:42;4.70;;;3.00;;
12554;SDS011;6343;50.868;4.700;2024-01-16T03:15:08;7.13;;;2.80;;
12554;SDS011;6343;50.868;4.700;2024-01-16T03:17:35;5.20;;;2.20;;
12554;SDS011;6343;50.868;4.700;2024-01-16T03:20:01;9.60;;;3.23;;
12554;SDS011;6343;50.868;4.700;2024-01-16T03:22:28;11.00;;;3.90;;
12554;SDS011;6343;50.868;4.700;2024-01-16T03:24:54;7.30;;;2.87;;
12554;SDS011;6343;50.868;4.700;2024-01-16T03:27:20;8.47;;;3.10;;
12554;SDS011;6343;50.868;4.700;2024-01-16T03:29:46;6.07;;;2.80;;
12554;SDS011;6343;50.868;4.700;2024-01-16T03:32:12;5.13;;;3.00;;
12554;SDS011;6343;50.868;4.700;2024-01-16T03:34:39;8.10;;;2.63;;
12554;SDS011;6343;50.868;4.700;2024-01-16T03:37:05;7.47;;;2.70;;
12554;SDS011;6343;50.868;4.700;2024-01-16T03:39:31;10.63;;;3.07;;
12554;SDS011;6343;50.868;4.700;2024-01-16T03:41:57;7.23;;;3.70;;
12554;SDS011;6343;50.868;4.700;2024-01-16T03:44:23;7.87;;;2.90;;
12554;SDS011;6343;50.868;4.700;2024-01-16T03:46:49;11.30;;;3.07;;
12554;SDS011;6343;50.868;4.700;2024-01-16T03:49:15;10.53;;;2.90;;
12554;SDS011;6343;50.868;4.700;2024-01-16T03:51:41;8.07;;;2.80;;
12554;SDS011;6343;50.868;4.700;2024-01-16T03:54:12;9.60;;;3.00;;
12554;SDS011;6343;50.868;4.700;2024-01-16T03:56:40;11.10;;;3.40;;
12554;SDS011;6343;50.868;4.700;2024-01-16T03:59:07;12.03;;;3.60;;
12554;SDS011;6343;50.868;4.700;2024-01-16T04:01:33;7.77;;;2.87;;
12554;SDS011;6343;50.868;4.700;2024-01-16T04:04:02;6.20;;;2.80;;
12554;SDS011;6343;50.868;4.700;2024-01-16T04:06:31;6.30;;;3.30;;
12554;SDS011;6343;50.868;4.700;2024-01-16T04:08:57;7.93;;;3.67;;
12554;SDS011;6343;50.868;4.700;2024-01-16T04:11:23;6.37;;;2.77;;
12554;SDS011;6343;50.868;4.700;2024-01-16T04:13:49;7.87;;;3.13;;
12554;SDS011;6343;50.868;4.700;2024-01-16T04:16:16;6.77;;;3.13;;
12554;SDS011;6343;50.868;4.700;2024-01-16T04:18:42;13.73;;;3.40;;
12554;SDS011;6343;50.868;4.700;2024-01-16T04:21:09;7.03;;;3.70;;
12554;SDS011;6343;50.868;4.700;2024-01-16T04:23:36;8.53;;;3.00;;
12554;SDS011;6343;50.868;4.700;2024-01-16T04:26:02;13.60;;;3.03;;
12554;SDS011;6343;50.868;4.700;2024-01-16T04:28:28;9.70;;;3.27;;
12554;SDS011;6343;50.868;4.700;2024-01-16T04:30:54;7.67;;;2.87;;
12554;SDS011;6343;50.868;4.700;2024-01-16T04:33:21;8.57;;;2.93;;
12554;SDS011;6343;50.868;4.700;2024-01-16T04:35:47;10.90;;;2.90;;
12554;SDS011;6343;50.868;4.700;2024-01-16T04:38:13;7.63;;;3.47;;
12554;SDS011;6343;50.868;4.700;2024-01-16T04:40:39;7.17;;;3.20;;
12554;SDS011;6343;50.868;4.700;2024-01-16T04:43:06;10.17;;;3.67;;
12554;SDS011;6343;50.868;4.700;2024-01-16T04:45:32;9.80;;;3.33;;
12554;SDS011;6343;50.868;4.700;2024-01-16T04:47:58;10.77;;;3.67;;
12554;SDS011;6343;50.868;4.700;2024-01-16T04:50:24;9.10;;;2.73;;
12554;SDS011;6343;50.868;4.700;2024-01-16T04:52:56;10.23;;;3.63;;
12554;SDS011;6343;50.868;4.700;2024-01-16T04:55:24;10.27;;;3.13;;
12554;SDS011;6343;50.868;4.700;2024-01-16T04:57:50;9.00;;;3.90;;
12554;SDS011;6343;50.868;4.700;2024-01-16T05:00:17;9.77;;;4.20;;
12554;SDS011;6343;50.868;4.700;2024-01-16T05:02:43;5.87;;;3.03;;
12554;SDS011;6343;50.868;4.700;2024-01-16T05:05:09;8.93;;;4.10;;
12554;SDS011;6343;50.868;4.700;2024-01-16T05:07:35;7.90;;;3.70;;
12554;SDS011;6343;50.868;4.700;2024-01-16T05:10:01;12.73;;;3.77;;
12554;SDS011;6343;50.868;4.700;2024-01-16T05:12:27;10.07;;;3.60;;
12554;SDS011;6343;50.868;4.700;2024-01-16T05:14:53;11.60;;;3.63;;
12554;SDS011;6343;50.868;4.700;2024-01-16T05:17:19;8.80;;;4.27;;
12554;SDS011;6343;50.868;4.700;2024-01-16T05:19:45;10.50;;;3.63;;
12554;SDS011;6343;50.868;4.700;2024-01-16T05:22:12;12.83;;;4.07;;
12554;SDS011;6343;50.868;4.700;2024-01-16T05:24:38;12.37;;;3.77;;
12554;SDS011;6343;50.868;4.700;2024-01-16T05:27:04;8.13;;;4.53;;
12554;SDS011;6343;50.868;4.700;2024-01-16T05:29:30;8.80;;;3.97;;
12554;SDS011;6343;50.868;4.700;2024-01-16T05:31:56;8.57;;;3.80;;
12554;SDS011;6343;50.868;4.700;2024-01-16T05:34:22;13.33;;;4.23;;
12554;SDS011;6343;50.868;4.700;2024-01-16T05:36:49;11.23;;;3.70;;
12554;SDS011;6343;50.868;4.700;2024-01-16T05:39:15;10.10;;;4.30;;
12554;SDS011;6343;50.868;4.700;2024-01-16T05:41:42;12.20;;;4.27;;
12554;SDS011;6343;50.868;4.700;2024-01-16T05:44:08;8.97;;;3.83;;
12554;SDS011;6343;50.868;4.700;2024-01-16T05:46:34;15.87;;;4.20;;
12554;SDS011;6343;50.868;4.700;2024-01-16T05:49:00;10.23;;;4.23;;
12554;SDS011;6343;50.868;4.700;2024-01-16T05:51:27;6.73;;;4.37;;
12554;SDS011;6343;50.868;4.700;2024-01-16T05:53:54;8.70;;;3.90;;
12554;SDS011;6343;50.868;4.700;2024-01-16T05:56:20;9.47;;;4.40;;
12554;SDS011;6343;50.868;4.700;2024-01-16T05:58:46;8.30;;;3.60;;
12554;SDS011;6343;50.868;4.700;2024-01-16T06:01:12;12.57;;;3.83;;
12554;SDS011;6343;50.868;4.700;2024-01-16T06:03:41;9.47;;;3.83;;
12554;SDS011;6343;50.868;4.700;2024-01-16T06:06:10;8.67;;;3.60;;
12554;SDS011;6343;50.868;4.700;2024-01-16T06:08:36;8.10;;;4.00;;
12554;SDS011;6343;50.868;4.700;2024-01-16T06:11:02;10.00;;;4.13;;
12554;SDS011;6343;50.868;4.700;2024-01-16T06:13:28;6.53;;;3.67;;
12554;SDS011;6343;50.868;4.700;2024-01-16T06:15:57;7.37;;;4.17;;
12554;SDS011;6343;50.868;4.700;2024-01-16T06:18:23;8.10;;;3.70;;
12554;SDS011;6343;50.868;4.700;2024-01-16T06:20:49;9.57;;;3.97;;
12554;SDS011;6343;50.868;4.700;2024-01-16T06:23:15;12.27;;;4.33;;
12554;SDS011;6343;50.868;4.700;2024-01-16T06:25:41;7.77;;;3.87;;
12554;SDS011;6343;50.868;4.700;2024-01-16T06:28:07;11.67;;;4.00;;
12554;SDS011;6343;50.868;4.700;2024-01-16T06:30:33;9.80;;;4.27;;
12554;SDS011;6343;50.868;4.700;2024-01-16T06:32:59;8.53;;;4.10;;
12554;SDS011;6343;50.868;4.700;2024-01-16T06:35:25;9.00;;;4.23;;
12554;SDS011;6343;50.868;4.700;2024-01-16T06:37:51;13.87;;;4.97;;
12554;SDS011;6343;50.868;4.700;2024-01-16T06:40:17;11.60;;;3.87;;
12554;SDS011;6343;50.868;4.700;2024-01-16T06:42:43;6.53;;;3.80;;
12554;SDS011;6343;50.868;4.700;2024-01-16T06:45:10;9.00;;;4.13;;
12554;SDS011;6343;50.868;4.700;2024-01-16T06:47:37;10.53;;;4.00;;
12554;SDS011;6343;50.868;4.700;2024-01-16T06:50:05;10.37;;;3.67;;
12554;SDS011;6343;50.868;4.700;2024-01-16T06:52:31;9.87;;;4.60;;
12554;SDS011;6343;50.868;4.700;2024-01-16T06:54:57;10.07;;;3.87;;
12554;SDS011;6343;50.868;4.700;2024-01-16T06:57:23;12.30;;;4.30;;
12554;SDS011;6343;50.868;4.700;2024-01-16T06:59:49;8.47;;;4.23;;
12554;SDS011;6343;50.868;4.700;2024-01-16T07:02:15;8.47;;;4.03;;
12554;SDS011;6343;50.868;4.700;2024-01-16T07:04:41;13.50;;;4.67;;
12554;SDS011;6343;50.868;4.700;2024-01-16T07:07:08;9.80;;;4.57;;
12554;SDS011;6343;50.868;4.700;2024-01-16T07:09:34;10.13;;;4.10;;
12554;SDS011;6343;50.868;4.700;2024-01-16T07:12:00;8.77;;;3.73;;
12554;SDS011;6343;50.868;4.700;2024-01-16T07:14:26;11.50;;;4.17;;
12554;SDS011;6343;50.868;4.700;2024-01-16T07:16:52;7.13;;;3.77;;
12554;SDS011;6343;50.868;4.700;2024-01-16T07:19:18;11.93;;;4.40;;
12554;SDS011;6343;50.868;4.700;2024-01-16T07:21:44;8.97;;;3.60;;
12554;SDS011;6343;50.868;4.700;2024-01-16T07:24:10;10.57;;;3.93;;
12554;SDS011;6343;50.868;4.700;2024-01-16T07:26:37;17.10;;;4.20;;
12554;SDS011;6343;50.868;4.700;2024-01-16T07:29:03;6.80;;;3.90;;
12554;SDS011;6343;50.868;4.700;2024-01-16T07:31:29;8.77;;;3.90;;
12554;SDS011;6343;50.868;4.700;2024-01-16T07:33:55;9.37;;;3.43;;
12554;SDS011;6343;50.868;4.700;2024-01-16T07:36:21;12.60;;;4.40;;
12554;SDS011;6343;50.868;4.700;2024-01-16T07:38:47;14.43;;;4.17;;
12554;SDS011;6343;50.868;4.700;2024-01-16T07:41:13;8.33;;;4.10;;
12554;SDS011;6343;50.868;4.700;2024-01-16T07:43:39;12.33;;;4.67;;
12554;SDS011;6343;50.868;4.700;2024-01-16T07:46:06;10.17;;;4.07;;
12554;SDS011;6343;50.868;4.700;2024-01-16T07:48:32;9.20;;;3.83;;
12554;SDS011;6343;50.868;4.700;2024-01-16T07:50:58;11.57;;;4.20;;
12554;SDS011;6343;50.868;4.700;2024-01-16T07:53:24;8.87;;;3.83;;
12554;SDS011;6343;50.868;4.700;2024-01-16T07:55:53;11.23;;;4.20;;
12554;SDS011;6343;50.868;4.700;2024-01-16T07:58:19;9.17;;;3.47;;
12554;SDS011;6343;50.868;4.700;2024-01-16T08:00:46;7.63;;;4.17;;
12554;SDS011;6343;50.868;4.700;2024-01-16T08:03:12;7.80;;;4.03;;
12554;SDS011;6343;50.868;4.700;2024-01-16T08:05:39;7.43;;;3.67;;
12554;SDS011;6343;50.868;4.700;2024-01-16T08:08:08;8.33;;;4.50;;
12554;SDS011;6343;50.868;4.700;2024-01-16T08:10:37;10.50;;;3.73;;
12554;SDS011;6343;50.868;4.700;2024-01-16T08:13:03;14.27;;;4.00;;
12554;SDS011;6343;50.868;4.700;2024-01-16T08:15:29;8.57;;;3.87;;
12554;SDS011;6343;50.868;4.700;2024-01-16T08:17:56;8.20;;;3.97;;
12554;SDS011;6343;50.868;4.700;2024-01-16T08:20:22;8.83;;;4.03;;
12554;SDS011;6343;50.868;4.700;2024-01-16T08:24:26;10.50;;;3.60;;
12554;SDS011;6343;50.868;4.700;2024-01-16T08:26:52;7.20;;;3.63;;
12554;SDS011;6343;50.868;4.700;2024-01-16T08:29:18;10.00;;;3.67;;
12554;SDS011;6343;50.868;4.700;2024-01-16T08:31:45;9.27;;;4.13;;
12554;SDS011;6343;50.868;4.700;2024-01-16T08:34:12;8.27;;;3.53;;
12554;SDS011;6343;50.868;4.700;2024-01-16T08:36:38;9.37;;;4.03;;
12554;SDS011;6343;50.868;4.700;2024-01-16T08:39:05;10.53;;;4.27;;
12554;SDS011;6343;50.868;4.700;2024-01-16T08:41:31;10.60;;;4.03;;
12554;SDS011;6343;50.868;4.700;2024-01-16T08:43:57;7.63;;;4.10;;
12554;SDS011;6343;50.868;4.700;2024-01-16T08:46:23;7.20;;;3.83;;
12554;SDS011;6343;50.868;4.700;2024-01-16T08:48:49;10.87;;;4.20;;
12554;SDS011;6343;50.868;4.700;2024-01-16T08:51:16;7.77;;;3.73;;
12554;SDS011;6343;50.868;4.700;2024-01-16T08:53:42;12.43;;;4.40;;
12554;SDS011;6343;50.868;4.700;2024-01-16T08:56:08;7.27;;;3.73;;
12554;SDS011;6343;50.868;4.700;2024-01-16T08:58:34;10.60;;;3.97;;
12554;SDS011;6343;50.868;4.700;2024-01-16T09:01:03;12.03;;;4.37;;
12554;SDS011;6343;50.868;4.700;2024-01-16T09:03:30;7.63;;;4.03;;
12554;SDS011;6343;50.868;4.700;2024-01-16T09:05:56;9.80;;;4.20;;
12554;SDS011;6343;50.868;4.700;2024-01-16T09:08:22;7.80;;;4.20;;
12554;SDS011;6343;50.868;4.700;2024-01-16T09:10:49;14.07;;;4.50;;
12554;SDS011;6343;50.868;4.700;2024-01-16T09:13:15;9.07;;;3.80;;
12554;SDS011;6343;50.868;4.700;2024-01-16T09:15:41;12.63;;;4.90;;
12554;SDS011;6343;50.868;4.700;2024-01-16T09:18:07;10.20;;;3.93;;
12554;SDS011;6343;50.868;4.700;2024-01-16T09:20:33;11.00;;;4.10;;
12554;SDS011;6343;50.868;4.700;2024-01-16T09:23:00;9.53;;;3.80;;
12554;SDS011;6343;50.868;4.700;2024-01-16T09:25:26;9.57;;;4.30;;
12554;SDS011;6343;50.868;4.700;2024-01-16T09:27:54;8.67;;;3.60;;
12554;SDS011;6343;50.868;4.700;2024-01-16T09:30:20;9.57;;;4.07;;
12554;SDS011;6343;50.868;4.700;2024-01-16T09:32:50;7.40;;;3.50;;
12554;SDS011;6343;50.868;4.700;2024-01-16T09:35:16;7.80;;;3.63;;
12554;SDS011;6343;50.868;4.700;2024-01-16T09:37:42;8.67;;;3.57;;
12554;SDS011;6343;50.868;4.700;2024-01-16T09:40:09;6.50;;;3.70;;
12554;SDS011;6343;50.868;4.700;2024-01-16T09:42:35;8.67;;;3.80;;
12554;SDS011;6343;50.868;4.700;2024-01-16T09:45:01;8.20;;;3.60;;
12554;SDS011;6343;50.868;4.700;2024-01-16T09:47:31;6.50;;;3.27;;
12554;SDS011;6343;50.868;4.700;2024-01-16T09:50:01;8.80;;;3.43;;
12554;SDS011;6343;50.868;4.700;2024-01-16T09:52:28;10.77;;;3.43;;
12554;SDS011;6343;50.868;4.700;2024-01-16T09:54:54;5.70;;;2.97;;
12554;SDS011;6343;50.868;4.700;2024-01-16T09:58:55;8.57;;;3.73;;
12554;SDS011;6343;50.868;4.700;2024-01-16T10:01:23;6.60;;;3.27;;
12554;SDS011;6343;50.868;4.700;2024-01-16T10:03:49;7.73;;;3.63;;
12554;SDS011;6343;50.868;4.700;2024-01-16T10:06:16;8.37;;;3.97;;
12554;SDS011;6343;50.868;4.700;2024-01-16T10:08:43;10.43;;;3.43;;
12554;SDS011;6343;50.868;4.700;2024-01-16T10:11:10;7.47;;;3.73;;
12554;SDS011;6343;50.868;4.700;2024-01-16T10:13:36;7.67;;;3.67;;
12554;SDS011;6343;50.868;4.700;2024-01-16T10:16:02;6.53;;;3.70;;
12554;SDS011;6343;50.868;4.700;2024-01-16T10:18:29;6.40;;;3.63;;
12554;SDS011;6343;50.868;4.700;2024-01-16T10:20:55;7.27;;;3.50;;
12554;SDS011;6343;50.868;4.700;2024-01-16T10:23:22;7.00;;;3.20;;
12554;SDS011;6343;50.868;4.700;2024-01-16T10:26:10;6.50;;;3.50;;
12554;SDS011;6343;50.868;4.700;2024-01-16T10:28:35;7.60;;;3.73;;
12554;SDS011;6343;50.868;4.700;2024-01-16T10:31:02;9.00;;;4.03;;
12554;SDS011;6343;50.868;4.700;2024-01-16T10:33:29;6.07;;;3.23;;
12554;SDS011;6343;50.868;4.700;2024-01-16T10:38:35;8.20;;;3.43;;
12554;SDS011;6343;50.868;4.700;2024-01-16T10:41:05;7.80;;;3.73;;
12554;SDS011;6343;50.868;4.700;2024-01-16T10:43:31;9.90;;;3.70;;
12554;SDS011;6343;50.868;4.700;2024-01-16T10:46:16;9.27;;;3.50;;
12554;SDS011;6343;50.868;4.700;2024-01-16T10:48:43;10.33;;;3.70;;
12554;SDS011;6343;50.868;4.700;2024-01-16T10:51:16;13.57;;;3.67;;
12554;SDS011;6343;50.868;4.700;2024-01-16T10:53:43;10.60;;;3.43;;
12554;SDS011;6343;50.868;4.700;2024-01-16T10:56:12;9.90;;;3.60;;
12554;SDS011;6343;50.868;4.700;2024-01-16T10:58:41;7.27;;;3.20;;
12554;SDS011;6343;50.868;4.700;2024-01-16T11:01:10;8.73;;;3.57;;
12554;SDS011;6343;50.868;4.700;2024-01-16T11:03:43;7.27;;;3.20;;
12554;SDS011;6343;50.868;4.700;2024-01-16T11:06:12;5.93;;;3.37;;
12554;SDS011;6343;50.868;4.700;2024-01-16T11:08:40;11.57;;;3.27;;
12554;SDS011;6343;50.868;4.700;2024-01-16T11:11:07;11.97;;;3.40;;
12554;SDS011;6343;50.868;4.700;2024-01-16T11:13:34;13.50;;;4.00;;
12554;SDS011;6343;50.868;4.700;2024-01-16T11:16:01;8.40;;;2.77;;
12554;SDS011;6343;50.868;4.700;2024-01-16T11:18:29;9.10;;;3.47;;
12554;SDS011;6343;50.868;4.700;2024-01-16T11:20:57;9.87;;;2.50;;
12554;SDS011;6343;50.868;4.700;2024-01-16T11:23:24;6.33;;;3.00;;
12554;SDS011;6343;50.868;4.700;2024-01-16T11:25:50;4.13;;;2.40;;
12554;SDS011;6343;50.868;4.700;2024-01-16T11:28:16;8.43;;;3.17;;
12554;SDS011;6343;50.868;4.700;2024-01-16T11:30:44;4.07;;;2.23;;
12554;SDS011;6343;50.868;4.700;2024-01-16T11:35:55;7.37;;;2.80;;
12554;SDS011;6343;50.868;4.700;2024-01-16T11:38:21;5.50;;;2.53;;
12554;SDS011;6343;50.868;4.700;2024-01-16T11:40:47;5.83;;;2.13;;
12554;SDS011;6343;50.868;4.700;2024-01-16T11:45:58;6.60;;;2.60;;
12554;SDS011;6343;50.868;4.700;2024-01-16T11:48:24;6.73;;;2.63;;
12554;SDS011;6343;50.868;4.700;2024-01-16T11:50:50;7.63;;;2.50;;
12554;SDS011;6343;50.868;4.700;2024-01-16T11:53:33;5.77;;;2.20;;
12554;SDS011;6343;50.868;4.700;2024-01-16T12:00:59;5.43;;;2.30;;
12554;SDS011;6343;50.868;4.700;2024-01-16T12:03:28;8.03;;;2.40;;
12554;SDS011;6343;50.868;4.700;2024-01-16T12:05:59;5.83;;;2.60;;
12554;SDS011;6343;50.868;4.700;2024-01-16T12:08:25;7.37;;;2.53;;
12554;SDS011;6343;50.868;4.700;2024-01-16T12:10:52;6.80;;;2.60;;
12554;SDS011;6343;50.868;4.700;2024-01-16T12:13:18;12.70;;;2.87;;
12554;SDS011;6343;50.868;4.700;2024-01-16T12:15:44;6.50;;;2.50;;
12554;SDS011;6343;50.868;4.700;2024-01-16T12:18:17;8.30;;;2.53;;
12554;SDS011;6343;50.868;4.700;2024-01-16T12:20:43;7.30;;;2.40;;
12554;SDS011;6343;50.868;4.700;2024-01-16T12:23:09;7.23;;;2.50;;
12554;SDS011;6343;50.868;4.700;2024-01-16T12:25:36;7.10;;;2.30;;
12554;SDS011;6343;50.868;4.700;2024-01-16T12:28:03;4.60;;;3.03;;
12554;SDS011;6343;50.868;4.700;2024-01-16T12:30:33;8.70;;;2.60;;
12554;SDS011;6343;50.868;4.700;2024-01-16T12:35:38;8.27;;;2.23;;
12554;SDS011;6343;50.868;4.700;2024-01-16T12:38:04;4.30;;;2.20;;
12554;SDS011;6343;50.868;4.700;2024-01-16T12:40:32;18.20;;;3.73;;
12554;SDS011;6343;50.868;4.700;2024-01-16T12:42:59;6.80;;;2.43;;
12554;SDS011;6343;50.868;4.700;2024-01-16T12:45:25;6.27;;;2.93;;
12554;SDS011;6343;50.868;4.700;2024-01-16T12:47:53;6.67;;;2.70;;
12554;SDS011;6343;50.868;4.700;2024-01-16T12:50:20;9.33;;;2.70;;
12554;SDS011;6343;50.868;4.700;2024-01-16T12:52:48;5.30;;;2.53;;
12554;SDS011;6343;50.868;4.700;2024-01-16T12:55:14;9.70;;;2.93;;
12554;SDS011;6343;50.868;4.700;2024-01-16T12:57:41;8.03;;;2.90;;
12554;SDS011;6343;50.868;4.700;2024-01-16T13:00:25;7.27;;;3.00;;
12554;SDS011;6343;50.868;4.700;2024-01-16T13:02:52;6.10;;;2.90;;
12554;SDS011;6343;50.868;4.700;2024-01-16T13:05:20;6.40;;;2.40;;
12554;SDS011;6343;50.868;4.700;2024-01-16T13:07:50;5.03;;;2.70;;
12554;SDS011;6343;50.868;4.700;2024-01-16T13:10:25;7.70;;;3.03;;
12554;SDS011;6343;50.868;4.700;2024-01-16T13:12:51;7.97;;;2.60;;
12554;SDS011;6343;50.868;4.700;2024-01-16T13:15:18;8.47;;;2.60;;
12554;SDS011;6343;50.868;4.700;2024-01-16T13:17:44;7.30;;;2.40;;
12554;SDS011;6343;50.868;4.700;2024-01-16T13:20:10;9.57;;;2.70;;
12554;SDS011;6343;50.868;4.700;2024-01-16T13:22:38;5.90;;;2.40;;
12554;SDS011;6343;50.868;4.700;2024-01-16T13:25:04;6.77;;;2.70;;
12554;SDS011;6343;50.868;4.700;2024-01-16T13:27:30;4.20;;;2.60;;
12554;SDS011;6343;50.868;4.700;2024-01-16T13:29:57;5.53;;;2.47;;
12554;SDS011;6343;50.868;4.700;2024-01-16T13:32:23;5.60;;;2.40;;
12554;SDS011;6343;50.868;4.700;2024-01-16T13:34:51;8.83;;;2.50;;
12554;SDS011;6343;50.868;4.700;2024-01-16T13:37:19;6.67;;;2.70;;
12554;SDS011;6343;50.868;4.700;2024-01-16T13:39:46;5.50;;;2.90;;
12554;SDS011;6343;50.868;4.700;2024-01-16T13:42:12;5.90;;;2.30;;
12554;SDS011;6343;50.868;4.700;2024-01-16T13:44:43;9.50;;;2.53;;
12554;SDS011;6343;50.868;4.700;2024-01-16T13:47:09;4.83;;;2.40;;
12554;SDS011;6343;50.868;4.700;2024-01-16T13:49:35;6.43;;;2.40;;
12554;SDS011;6343;50.868;4.700;2024-01-16T13:52:01;6.57;;;2.67;;
12554;SDS011;6343;50.868;4.700;2024-01-16T13:54:28;6.17;;;2.63;;
12554;SDS011;6343;50.868;4.700;2024-01-16T13:56:54;4.53;;;2.60;;
12554;SDS011;6343;50.868;4.700;2024-01-16T13:59:20;9.50;;;2.90;;
12554;SDS011;6343;50.868;4.700;2024-01-16T14:01:46;8.17;;;2.60;;
12554;SDS011;6343;50.868;4.700;2024-01-16T14:04:12;8.67;;;2.67;;
12554;SDS011;6343;50.868;4.700;2024-01-16T14:06:38;11.33;;;3.60;;
12554;SDS011;6343;50.868;4.700;2024-01-16T14:09:04;13.50;;;4.70;;
12554;SDS011;6343;50.868;4.700;2024-01-16T14:11:34;7.23;;;2.57;;
12554;SDS011;6343;50.868;4.700;2024-01-16T14:14:00;10.80;;;2.73;;
12554;SDS011;6343;50.868;4.700;2024-01-16T14:16:28;9.70;;;2.70;;
12554;SDS011;6343;50.868;4.700;2024-01-16T14:18:54;7.37;;;2.73;;
12554;SDS011;6343;50.868;4.700;2024-01-16T14:21:20;4.47;;;2.40;;
12554;SDS011;6343;50.868;4.700;2024-01-16T14:23:46;11.93;;;3.40;;
12554;SDS011;6343;50.868;4.700;2024-01-16T14:26:12;6.33;;;2.53;;
12554;SDS011;6343;50.868;4.700;2024-01-16T14:28:38;13.00;;;3.10;;
12554;SDS011;6343;50.868;4.700;2024-01-16T14:31:04;5.40;;;2.13;;
12554;SDS011;6343;50.868;4.700;2024-01-16T14:33:30;6.63;;;2.63;;
12554;SDS011;6343;50.868;4.700;2024-01-16T14:35:56;5.50;;;2.77;;
12554;SDS011;6343;50.868;4.700;2024-01-16T14:38:24;9.17;;;2.63;;
12554;SDS011;6343;50.868;4.700;2024-01-16T14:40:50;4.13;;;1.93;;
12554;SDS011;6343;50.868;4.700;2024-01-16T14:43:17;5.97;;;3.07;;
12554;SDS011;6343;50.868;4.700;2024-01-16T14:45:43;4.83;;;2.80;;
12554;SDS011;6343;50.868;4.700;2024-01-16T14:48:09;5.70;;;2.70;;
12554;SDS011;6343;50.868;4.700;2024-01-16T14:50:36;6.37;;;2.13;;
12554;SDS011;6343;50.868;4.700;2024-01-16T14:53:02;11.87;;;3.43;;
12554;SDS011;6343;50.868;4.700;2024-01-16T14:55:30;8.43;;;3.40;;
12554;SDS011;6343;50.868;4.700;2024-01-16T14:57:58;5.30;;;2.53;;
12554;SDS011;6343;50.868;4.700;2024-01-16T15:00:25;7.37;;;2.77;;
12554;SDS011;6343;50.868;4.700;2024-01-16T15:02:55;4.97;;;2.63;;
12554;SDS011;6343;50.868;4.700;2024-01-16T15:05:22;5.23;;;2.73;;
12554;SDS011;6343;50.868;4.700;2024-01-16T15:07:48;7.77;;;2.90;;
12554;SDS011;6343;50.868;4.700;2024-01-16T15:10:17;7.30;;;3.00;;
12554;SDS011;6343;50.868;4.700;2024-01-16T15:12:43;9.17;;;2.67;;
12554;SDS011;6343;50.868;4.700;2024-01-16T15:15:10;9.53;;;2.80;;